Time;durP1;ratioP1;P1;durP2;ratioP2;P2;SDS_P1;SDS_P2;PMS_P1;PMS_P2;Temp;Humidity;BMP_temperature;BMP_pressure;BME280_temperature;BME280_humidity;BME280_pressure;Samples;Min_cycle;Max_cycle;Signal;HPM_P1;HPM_P2
2023/02/19 00:01:45;;;;;;;2.50;0.50;;;;;;;4.07;100.00;98528.31;106514;1254;61386;-76
2023/02/19 00:04:18;;;;;;;6.30;0.70;;;;;;;4.09;100.00;98528.20;109135;1253;74775;-77
2023/02/19 00:06:46;;;;;;;5.60;0.70;;;;;;;4.10;100.00;98530.98;107863;1254;66267;-77
2023/02/19 00:09:18;;;;;;;6.50;0.80;;;;;;;4.10;100.00;98526.73;106328;1254;70941;-76
2023/02/19 00:11:48;;;;;;;4.70;0.70;;;;;;;4.09;100.00;98524.66;106049;1254;60547;-77
2023/02/19 00:14:18;;;;;;;3.50;0.70;;;;;;;4.05;100.00;98523.21;105420;1252;76415;-47
2023/02/19 00:16:47;;;;;;;4.20;0.70;;;;;;;4.03;100.00;98522.60;109191;1256;74586;-51
2023/02/19 00:19:18;;;;;;;7.30;1.20;;;;;;;3.99;100.00;98525.97;109252;1254;65900;-49
2023/02/19 00:21:47;;;;;;;5.60;0.70;;;;;;;3.96;100.00;98523.98;105232;1254;71800;-48
2023/02/19 00:24:14;;;;;;;4.00;1.10;;;;;;;3.93;100.00;98528.70;105250;1257;60533;-48
2023/02/19 00:26:45;;;;;;;7.30;0.80;;;;;;;3.89;100.00;98529.20;105213;1254;61149;-52
2023/02/19 00:29:15;;;;;;;5.10;0.70;;;;;;;3.85;100.00;98531.85;109219;1254;73384;-49
2023/02/19 00:31:43;;;;;;;5.20;1.40;;;;;;;3.81;100.00;98533.45;108165;1254;65300;-50
2023/02/19 00:34:12;;;;;;;4.10;0.90;;;;;;;3.78;100.00;98529.66;105316;1259;71702;-48
2023/02/19 00:36:40;;;;;;;7.50;0.90;;;;;;;3.75;100.00;98530.11;109200;1254;59810;-49
2023/02/19 00:39:12;;;;;;;4.70;0.90;;;;;;;3.71;100.00;98533.30;108865;1253;59511;-47
2023/02/19 00:41:40;;;;;;;4.50;0.90;;;;;;;3.68;100.00;98531.46;105254;1255;72848;-52
2023/02/19 00:44:09;;;;;;;5.00;0.60;;;;;;;3.66;100.00;98534.05;105146;1257;67115;-48
2023/02/19 00:46:39;;;;;;;5.60;0.90;;;;;;;3.64;100.00;98532.72;104890;1259;73355;-52
2023/02/19 00:49:13;;;;;;;2.00;0.50;;;;;;;3.65;100.00;98534.11;109066;1254;60224;-47
2023/02/19 00:51:41;;;;;;;4.90;0.80;;;;;;;3.66;100.00;98534.56;105234;1257;60421;-53
2023/02/19 00:54:12;;;;;;;8.10;1.00;;;;;;;3.67;100.00;98537.36;105269;1253;74046;-49
2023/02/19 00:56:41;;;;;;;5.70;1.20;;;;;;;3.69;100.00;98538.70;108808;1253;67501;-51
2023/02/19 00:59:09;;;;;;;5.00;0.80;;;;;;;3.69;100.00;98542.25;104992;1254;72906;-46
2023/02/19 01:01:38;;;;;;;4.80;1.50;;;;;;;3.69;100.00;98541.55;105596;1257;60517;-48
2023/02/19 01:04:06;;;;;;;2.70;0.60;;;;;;;3.69;100.00;98544.75;105219;1254;60534;-49
2023/02/19 01:06:35;;;;;;;5.90;0.80;;;;;;;3.67;100.00;98545.89;105165;1259;72575;-48
2023/02/19 01:09:04;;;;;;;5.30;0.60;;;;;;;3.65;100.00;98540.67;105015;1257;68391;-48
2023/02/19 01:11:38;;;;;;;3.30;0.70;;;;;;;3.62;100.00;98541.83;105164;1254;73216;-50
2023/02/19 01:14:06;;;;;;;6.70;0.70;;;;;;;3.60;100.00;98541.56;105161;1254;60549;-49
2023/02/19 01:16:34;;;;;;;5.10;1.20;;;;;;;3.57;100.00;98545.42;105290;1257;60671;-49
2023/02/19 01:19:03;;;;;;;3.60;0.80;;;;;;;3.55;100.00;98547.11;105451;1260;73639;-49
2023/02/19 01:21:31;;;;;;;3.60;0.80;;;;;;;3.53;100.00;98552.31;105202;1254;65453;-47
2023/02/19 01:23:59;;;;;;;7.20;1.60;;;;;;;3.51;100.00;98553.44;109036;1254;72213;-48
2023/02/19 01:26:29;;;;;;;3.40;0.90;;;;;;;3.51;100.00;98550.95;108615;1253;61271;-47
2023/02/19 01:29:00;;;;;;;6.80;1.10;;;;;;;3.54;100.00;98551.77;105077;1260;61564;-47
2023/02/19 01:31:28;;;;;;;3.70;0.60;;;;;;;3.56;100.00;98553.42;105223;1254;71716;-48
2023/02/19 01:34:00;;;;;;;3.70;0.60;;;;;;;3.59;100.00;98550.45;105205;1257;67912;-49
2023/02/19 01:36:30;;;;;;;7.20;0.70;;;;;;;3.62;100.00;98557.80;105115;1254;71550;-49
2023/02/19 01:38:59;;;;;;;3.60;0.80;;;;;;;3.65;100.00;98557.86;109060;1254;58520;-50
2023/02/19 01:41:27;;;;;;;9.00;0.70;;;;;;;3.67;100.00;98556.88;109232;1253;60885;-46
2023/02/19 01:44:21;;;;;;;5.50;0.60;;;;;;;3.68;100.00;98559.33;109102;1254;74108;-47
2023/02/19 01:46:52;;;;;;;6.20;0.80;;;;;;;3.68;100.00;98560.05;104984;1258;69154;-46
2023/02/19 01:49:23;;;;;;;2.80;0.70;;;;;;;3.66;100.00;98560.67;106132;1253;72925;-46
2023/02/19 01:52:31;;;;;;;4.40;0.90;;;;;;;3.64;100.00;98564.13;105003;1260;60533;-51
2023/02/19 01:55:00;;;;;;;4.70;0.70;;;;;;;3.60;100.00;98567.64;109234;1253;58422;-47
2023/02/19 01:57:32;;;;;;;5.00;0.70;;;;;;;3.57;100.00;98571.81;105504;1254;73471;-46
2023/02/19 02:00:08;;;;;;;5.30;0.70;;;;;;;3.53;100.00;98570.92;109212;1253;65869;-48
2023/02/19 02:02:41;;;;;;;5.20;0.80;;;;;;;3.50;100.00;98577.27;109256;1253;71626;-49
2023/02/19 02:05:14;;;;;;;4.20;0.70;;;;;;;3.47;100.00;98570.63;107418;1259;60774;-48
2023/02/19 02:10:30;;;;;;;6.80;0.80;;;;;;;3.46;100.00;98570.67;109090;1254;72818;-49
2023/02/19 02:13:00;;;;;;;3.80;1.00;;;;;;;3.46;100.00;98579.89;109268;1253;64752;-49
2023/02/19 02:15:34;;;;;;;5.80;1.20;;;;;;;3.47;100.00;98590.87;105545;1257;71366;-46
2023/02/19 02:18:29;;;;;;;4.20;0.80;;;;;;;3.49;100.00;98590.59;104924;1255;60525;-49
2023/02/19 02:21:20;;;;;;;;;;;;;;;3.51;100.00;98591.73;105148;1253;61547;-48
2023/02/19 02:24:19;;;;;;;4.40;0.80;;;;;;;3.53;100.00;98593.80;104834;1254;72808;-48
2023/02/19 02:27:17;;;;;;;7.10;0.80;;;;;;;3.53;100.00;98599.48;104950;1261;67184;-50
2023/02/19 02:30:02;;;;;;;3.20;1.00;;;;;;;3.52;100.00;98605.00;109028;1254;71422;-52
2023/02/19 02:32:52;;;;;;;5.20;0.70;;;;;;;3.51;100.00;98608.27;108047;1254;60537;-51
2023/02/19 02:35:30;;;;;;;6.70;0.80;;;;;;;3.48;100.00;98610.68;106371;1256;61060;-51
2023/02/19 02:38:01;;;;;;;9.60;1.00;;;;;;;3.45;100.00;98606.90;109021;1256;72982;-53
2023/02/19 02:40:30;;;;;;;6.00;0.60;;;;;;;3.42;100.00;98608.56;108970;1254;65813;-52
2023/02/19 02:42:59;;;;;;;3.80;0.80;;;;;;;3.42;100.00;98604.32;108577;1254;71932;-47
2023/02/19 02:45:36;;;;;;;4.40;0.70;;;;;;;3.44;100.00;98604.98;105375;1254;61773;-48
2023/02/19 02:48:40;;;;;;;3.70;0.70;;;;;;;3.48;100.00;98603.07;106307;1254;60825;-49
2023/02/19 02:51:20;;;;;;;2.60;0.80;;;;;;;3.50;100.00;98611.99;105161;1254;73882;-46
2023/02/19 02:56:42;;;;;;;5.50;0.80;;;;;;;3.51;100.00;98625.09;104948;1254;71897;-51
2023/02/19 02:59:11;;;;;;;7.60;1.10;;;;;;;3.50;100.00;98632.76;104996;1253;60695;-48
2023/02/19 03:07:54;;;;;;;7.10;0.80;;;;;;;3.34;100.00;98644.52;105382;1254;65676;-50
2023/02/19 03:10:25;;;;;;;4.30;0.80;;;;;;;3.27;100.00;98652.07;109259;1253;71822;-50
2023/02/19 03:21:20;;;;;;;3.80;0.90;;;;;;;3.09;100.00;98656.63;109149;1254;67530;-49
2023/02/19 03:26:35;;;;;;;5.20;1.00;;;;;;;3.04;100.00;98661.58;105169;1256;60441;-50
2023/02/19 03:29:22;;;;;;;3.40;0.90;;;;;;;3.03;100.00;98662.48;108854;1254;60292;-51
2023/02/19 03:31:54;;;;;;;4.60;1.10;;;;;;;3.04;100.00;98663.36;108980;1254;74913;-48
2023/02/19 03:34:59;;;;;;;5.00;0.80;;;;;;;3.02;100.00;98659.17;106308;1259;66188;-48
2023/02/19 03:37:40;;;;;;;2.50;0.80;;;;;;;2.99;100.00;98666.54;105086;1254;72108;-47
2023/02/19 03:40:08;;;;;;;3.40;0.90;;;;;;;2.96;100.00;98669.69;109097;1254;58646;-50
2023/02/19 03:42:55;;;;;;;5.80;0.90;;;;;;;2.92;100.00;98673.88;108254;1254;60410;-48
2023/02/19 03:45:31;;;;;;;2.80;0.70;;;;;;;2.89;100.00;98685.66;105103;1257;72566;-49
2023/02/19 03:48:30;;;;;;;4.30;1.20;;;;;;;2.86;100.00;98684.17;105203;1254;67688;-49
2023/02/19 03:51:32;;;;;;;3.10;0.90;;;;;;;2.83;100.00;98692.08;109058;1254;71904;-50
2023/02/19 03:54:04;;;;;;;3.70;0.70;;;;;;;2.79;100.00;98694.73;107955;1254;60530;-50
2023/02/19 03:56:58;;;;;;;4.20;0.80;;;;;;;2.75;100.00;98693.08;104939;1256;61128;-52
2023/02/19 03:59:31;;;;;;;2.70;0.70;;;;;;;2.73;100.00;98689.94;105299;1254;72883;-49
2023/02/19 04:02:06;;;;;;;2.50;0.80;;;;;;;2.73;100.00;98691.55;105356;1257;65965;-49
2023/02/19 04:04:40;;;;;;;3.70;0.80;;;;;;;2.72;100.00;98683.10;105996;1254;72022;-51
2023/02/19 04:07:10;;;;;;;4.80;0.80;;;;;;;2.71;100.00;98686.31;105090;1254;60569;-51
2023/02/19 04:09:41;;;;;;;2.90;0.70;;;;;;;2.73;100.00;98688.88;105511;1254;60597;-51
2023/02/19 04:12:12;;;;;;;2.30;0.70;;;;;;;2.77;100.00;98688.75;105276;1254;72617;-50
2023/02/19 04:14:57;;;;;;;4.50;1.00;;;;;;;2.80;100.00;98678.73;105382;1253;65987;-49
2023/02/19 04:17:28;;;;;;;2.50;0.80;;;;;;;2.81;100.00;98677.60;109255;1254;73416;-52
2023/02/19 04:19:56;;;;;;;4.00;0.80;;;;;;;2.80;100.00;98686.34;107871;1254;60542;-49
2023/02/19 04:22:24;;;;;;;4.80;0.90;;;;;;;2.79;100.00;98691.35;105118;1254;64054;-49
2023/02/19 04:24:54;;;;;;;5.50;1.00;;;;;;;2.76;100.00;98694.09;108868;1253;73793;-49
2023/02/19 04:27:22;;;;;;;2.50;0.90;;;;;;;2.73;100.00;98704.13;105914;1257;67485;-49
2023/02/19 04:29:50;;;;;;;2.50;0.80;;;;;;;2.67;100.00;98702.35;105024;1254;74508;-49
2023/02/19 04:32:18;;;;;;;4.10;0.90;;;;;;;2.62;100.00;98695.79;104936;1256;61304;-48
2023/02/19 04:34:46;;;;;;;4.60;0.90;;;;;;;2.58;100.00;98711.17;105277;1256;60879;-50
2023/02/19 04:37:14;;;;;;;3.20;1.10;;;;;;;2.53;100.00;98716.13;109195;1254;74020;-50
2023/02/19 04:39:42;;;;;;;6.90;1.10;;;;;;;2.50;100.00;98718.70;107308;1253;65844;-51
2023/02/19 04:42:10;;;;;;;2.90;1.10;;;;;;;2.46;100.00;98723.45;104837;1254;74176;-49
2023/02/19 04:44:38;;;;;;;6.70;1.40;;;;;;;2.43;100.00;98722.10;109278;1252;60496;-52
2023/02/19 04:47:06;;;;;;;6.70;1.00;;;;;;;2.41;100.00;98725.52;105582;1256;61757;-49
2023/02/19 04:49:34;;;;;;;4.80;0.90;;;;;;;2.41;100.00;98726.95;104906;1253;75118;-50
2023/02/19 04:52:04;;;;;;;9.60;1.30;;;;;;;-49.75;59.60;59237.50;104292;1257;1002726;-49
2023/02/19 04:54:32;;;;;;;2.80;0.80;;;;;;;-128.00;-1.00;-1.00;106558;1253;1013892;-50
2023/02/19 04:57:00;;;;;;;5.40;1.00;;;;;;;-128.00;-1.00;-1.00;103009;1253;1004684;-49
2023/02/19 04:59:30;;;;;;;4.50;0.90;;;;;;;-128.00;-1.00;-1.00;102490;1254;1013498;-48
2023/02/19 05:01:57;;;;;;;7.50;1.10;;;;;;;-128.00;-1.00;-1.00;102531;1256;1002376;-47
2023/02/19 05:04:25;;;;;;;8.60;1.20;;;;;;;-128.00;-1.00;-1.00;106495;1253;1002336;-50
2023/02/19 05:06:53;;;;;;;4.90;1.50;;;;;;;-128.00;-1.00;-1.00;105616;1253;1002495;-48
2023/02/19 05:09:22;;;;;;;4.60;0.80;;;;;;;-128.00;-1.00;-1.00;103154;1257;1010695;-47
2023/02/19 05:11:51;;;;;;;3.80;1.10;;;;;;;-128.00;-1.00;-1.00;103831;1256;1002943;-47
2023/02/19 05:14:19;;;;;;;3.40;0.90;;;;;;;-128.00;-1.00;-1.00;106462;1254;1002517;-49
2023/02/19 05:16:47;;;;;;;5.00;0.90;;;;;;;-128.00;-1.00;-1.00;105199;1253;1002737;-48
2023/02/19 05:19:15;;;;;;;4.30;0.90;;;;;;;-128.00;-1.00;-1.00;102739;1254;1013939;-51
2023/02/19 05:21:43;;;;;;;4.60;0.90;;;;;;;-128.00;-1.00;-1.00;102717;1254;1002947;-49
2023/02/19 05:24:11;;;;;;;4.80;0.80;;;;;;;-128.00;-1.00;-1.00;106520;1254;1002950;-50
2023/02/19 05:26:39;;;;;;;4.20;0.80;;;;;;;-128.00;-1.00;-1.00;103788;1257;1003568;-51
2023/02/19 05:29:07;;;;;;;3.10;0.90;;;;;;;-128.00;-1.00;-1.00;102699;1254;1013124;-47
2023/02/19 05:31:35;;;;;;;3.30;0.80;;;;;;;-128.00;-1.00;-1.00;106367;1254;1002519;-49
2023/02/19 05:34:03;;;;;;;6.10;0.80;;;;;;;-128.00;-1.00;-1.00;103786;1254;1004157;-50
2023/02/19 05:36:33;;;;;;;2.80;0.80;;;;;;;-128.00;-1.00;-1.00;102369;1256;1011327;-46
2023/02/19 05:39:01;;;;;;;2.60;0.90;;;;;;;-128.00;-1.00;-1.00;102791;1256;1004466;-51
2023/02/19 05:41:29;;;;;;;2.80;0.80;;;;;;;-128.00;-1.00;-1.00;106566;1253;1012827;-50
2023/02/19 05:43:58;;;;;;;3.20;0.90;;;;;;;-128.00;-1.00;-1.00;104474;1254;1013064;-51
2023/02/19 05:46:28;;;;;;;6.40;1.00;;;;;;;-128.00;-1.00;-1.00;102464;1256;1004399;-51
2023/02/19 05:48:57;;;;;;;5.30;1.00;;;;;;;-128.00;-1.00;-1.00;102885;1253;1011178;-50
2023/02/19 05:51:25;;;;;;;1.90;0.60;;;;;;;-128.00;-1.00;-1.00;104237;1259;1002728;-51
2023/02/19 05:53:54;;;;;;;4.80;0.90;;;;;;;-128.00;-1.00;-1.00;106458;1253;1011724;-50
2023/02/19 05:56:29;;;;;;;5.10;0.60;;;;;;;-128.00;-1.00;-1.00;106327;1254;1012639;-50
2023/02/19 05:58:58;;;;;;;3.80;0.80;;;;;;;-128.00;-1.00;-1.00;106172;1253;1010702;-49
2023/02/19 06:01:27;;;;;;;6.10;0.80;;;;;;;-128.00;-1.00;-1.00;102684;1254;1010351;-49
2023/02/19 06:03:55;;;;;;;5.10;0.80;;;;;;;-128.00;-1.00;-1.00;102965;1254;1013368;-49
2023/02/19 06:06:25;;;;;;;5.10;0.70;;;;;;;-128.00;-1.00;-1.00;106374;1253;1013267;-50
2023/02/19 06:08:53;;;;;;;5.30;0.80;;;;;;;-128.00;-1.00;-1.00;105131;1253;1002833;-49
2023/02/19 06:11:21;;;;;;;4.60;1.00;;;;;;;-128.00;-1.00;-1.00;102327;1253;1002717;-48
2023/02/19 06:13:49;;;;;;;3.80;1.10;;;;;;;-128.00;-1.00;-1.00;102425;1254;1011906;-50
2023/02/19 06:16:17;;;;;;;3.10;0.80;;;;;;;-128.00;-1.00;-1.00;102637;1256;1004060;-49
2023/02/19 06:18:47;;;;;;;2.40;1.10;;;;;;;-128.00;-1.00;-1.00;102859;1254;1013071;-47
2023/02/19 06:21:16;;;;;;;9.00;1.30;;;;;;;-128.00;-1.00;-1.00;102560;1254;1012372;-50
2023/02/19 06:23:44;;;;;;;5.50;1.10;;;;;;;-128.00;-1.00;-1.00;103413;1254;1010094;-51
2023/02/19 06:26:21;;;;;;;1.10;0.50;;;;;;;-128.00;-1.00;-1.00;106522;1254;1010986;-53
2023/02/19 06:28:50;;;;;;;5.00;0.70;;;;;;;-128.00;-1.00;-1.00;102786;1254;1014554;-50
2023/02/19 06:31:18;;;;;;;2.90;0.70;;;;;;;-128.00;-1.00;-1.00;102707;1257;1013481;-49
2023/02/19 06:33:47;;;;;;;3.30;0.80;;;;;;;-128.00;-1.00;-1.00;103353;1253;1013618;-48
2023/02/19 06:36:16;;;;;;;1.40;0.60;;;;;;;-128.00;-1.00;-1.00;102583;1256;1002757;-51
2023/02/19 06:38:44;;;;;;;3.90;0.90;;;;;;;-128.00;-1.00;-1.00;102467;1257;1011313;-48
2023/02/19 06:41:19;;;;;;;;;;;;;;;-128.00;-1.00;-1.00;102412;1257;1013559;-48
2023/02/19 06:43:47;;;;;;;4.50;1.00;;;;;;;-128.00;-1.00;-1.00;102470;1256;1002994;-50
2023/02/19 06:46:15;;;;;;;2.30;0.90;;;;;;;-128.00;-1.00;-1.00;106434;1253;1002609;-52
2023/02/19 06:48:43;;;;;;;3.10;0.70;;;;;;;-128.00;-1.00;-1.00;106424;1253;1009551;-51
2023/02/19 06:51:12;;;;;;;3.40;0.80;;;;;;;-128.00;-1.00;-1.00;105991;1254;1010877;-49
2023/02/19 06:53:40;;;;;;;4.60;0.80;;;;;;;-128.00;-1.00;-1.00;102403;1254;1012694;-51
2023/02/19 06:56:32;;;;;;;4.50;0.90;;;;;;;-128.00;-1.00;-1.00;102459;1256;1004739;-49
2023/02/19 06:59:02;;;;;;;3.20;1.00;;;;;;;-128.00;-1.00;-1.00;102331;1253;1015497;-51
2023/02/19 07:01:31;;;;;;;4.00;1.00;;;;;;;-128.00;-1.00;-1.00;102280;1256;1010538;-48
2023/02/19 07:03:59;;;;;;;3.00;0.90;;;;;;;-128.00;-1.00;-1.00;102742;1254;1010664;-48
2023/02/19 07:06:27;;;;;;;2.10;0.80;;;;;;;-128.00;-1.00;-1.00;102427;1259;1013388;-49
2023/02/19 07:08:58;;;;;;;6.60;0.80;;;;;;;-128.00;-1.00;-1.00;102311;1254;1012561;-49
2023/02/19 07:11:29;;;;;;;2.00;0.90;;;;;;;-128.00;-1.00;-1.00;102466;1256;1002556;-50
2023/02/19 07:13:58;;;;;;;3.10;0.70;;;;;;;-128.00;-1.00;-1.00;104614;1254;1009825;-48
2023/02/19 07:16:26;;;;;;;2.40;0.80;;;;;;;-128.00;-1.00;-1.00;102408;1254;1014730;-50
2023/02/19 07:18:57;;;;;;;2.90;0.60;;;;;;;-128.00;-1.00;-1.00;102363;1256;1015773;-50
2023/02/19 07:21:30;;;;;;;2.70;0.70;;;;;;;-128.00;-1.00;-1.00;102464;1254;1012935;-51
2023/02/19 07:23:58;;;;;;;1.50;0.70;;;;;;;-128.00;-1.00;-1.00;106331;1254;1012733;-52
2023/02/19 07:26:26;;;;;;;2.60;0.60;;;;;;;-128.00;-1.00;-1.00;102433;1257;1010970;-50
2023/02/19 07:28:54;;;;;;;4.80;1.00;;;;;;;-128.00;-1.00;-1.00;102373;1256;1002390;-49
2023/02/19 07:31:22;;;;;;;7.20;0.70;;;;;;;-128.00;-1.00;-1.00;102815;1256;1012326;-47
2023/02/19 07:33:51;;;;;;;6.50;0.90;;;;;;;-128.00;-1.00;-1.00;103836;1253;1012656;-50
2023/02/19 07:36:19;;;;;;;4.60;0.80;;;;;;;-128.00;-1.00;-1.00;103059;1256;1003128;-47
2023/02/19 07:38:57;;;;;;;3.80;1.10;;;;;;;-128.00;-1.00;-1.00;102375;1256;1010120;-50
2023/02/19 07:41:26;;;;;;;3.60;0.70;;;;;;;-128.00;-1.00;-1.00;102473;1256;1011363;-49
2023/02/19 07:43:55;;;;;;;2.50;0.70;;;;;;;-128.00;-1.00;-1.00;106496;1253;1012407;-52
2023/02/19 07:46:23;;;;;;;3.30;0.80;;;;;;;-128.00;-1.00;-1.00;106468;1254;1002802;-51
2023/02/19 07:48:54;;;;;;;1.60;0.60;;;;;;;-128.00;-1.00;-1.00;106522;1254;1013515;-51
2023/02/19 07:51:22;;;;;;;2.40;0.70;;;;;;;-128.00;-1.00;-1.00;106462;1257;1002733;-51
2023/02/19 07:53:50;;;;;;;4.60;0.70;;;;;;;-128.00;-1.00;-1.00;106415;1254;1002875;-53
2023/02/19 07:56:18;;;;;;;2.00;0.60;;;;;;;-128.00;-1.00;-1.00;106399;1253;1012531;-50
2023/02/19 07:58:46;;;;;;;2.60;0.60;;;;;;;-128.00;-1.00;-1.00;102897;1256;1012642;-49
2023/02/19 08:01:16;;;;;;;7.00;0.60;;;;;;;-128.00;-1.00;-1.00;101974;1257;1003241;-50
2023/02/19 08:04:53;;;;;;;3.80;0.70;;;;;;;4.32;100.00;98840.86;101536;1297;602237;-51
2023/02/19 08:07:20;;;;;;;4.50;0.80;;;;;;;4.19;100.00;98849.90;103856;1272;59754;-49
2023/02/19 08:13:17;;;;;;;1.70;0.60;;;;;;;4.12;100.00;98847.66;104078;1272;60879;-50
2023/02/19 08:15:19;;;;;;;3.20;0.70;;;;;;;4.05;100.00;98854.50;104195;1271;68153;-51
2023/02/19 08:17:50;;;;;;;5.70;0.70;;;;;;;3.98;100.00;98861.84;104954;1278;184977;-51
2023/02/19 08:20:17;;;;;;;2.60;0.80;;;;;;;3.89;100.00;98862.00;104342;1270;59218;-51
2023/02/19 08:22:44;;;;;;;3.50;0.70;;;;;;;3.82;100.00;98865.63;104885;1260;59245;-51
2023/02/19 08:25:10;;;;;;;2.10;0.60;;;;;;;3.79;100.00;98868.56;104909;1261;71186;-51
2023/02/19 08:27:38;;;;;;;4.50;1.10;;;;;;;3.75;100.00;98865.32;105077;1260;68221;-51
2023/02/19 08:30:09;;;;;;;4.20;0.60;;;;;;;3.65;100.00;98871.52;105861;1260;71381;-51
2023/02/19 08:32:36;;;;;;;2.80;0.50;;;;;;;3.58;100.00;98868.92;108899;1255;59942;-49
2023/02/19 08:35:02;;;;;;;6.60;0.60;;;;;;;3.56;100.00;98870.95;107513;1257;61398;-50
2023/02/19 08:37:29;;;;;;;2.40;0.60;;;;;;;3.59;100.00;98866.58;104748;1262;74022;-48
2023/02/19 08:39:56;;;;;;;6.40;0.70;;;;;;;3.58;100.00;98868.73;104778;1260;67100;-52
2023/02/19 08:42:23;;;;;;;2.90;0.60;;;;;;;3.58;100.00;98859.71;104853;1260;71912;-48
2023/02/19 08:44:49;;;;;;;4.00;0.50;;;;;;;3.59;100.00;98854.52;104791;1257;60222;-51
2023/02/19 08:47:16;;;;;;;3.60;0.60;;;;;;;3.60;100.00;98850.75;104650;1257;59537;-48
2023/02/19 08:49:42;;;;;;;2.10;0.60;;;;;;;3.61;100.00;98856.05;104874;1261;59745;-52
2023/02/19 08:52:10;;;;;;;3.30;0.50;;;;;;;3.60;100.00;98853.59;104785;1261;68253;-53
2023/02/19 08:54:37;;;;;;;5.30;0.70;;;;;;;3.59;100.00;98856.48;104724;1258;71947;-47
2023/02/19 08:57:04;;;;;;;2.10;0.60;;;;;;;3.60;100.00;98852.55;105967;1260;61353;-51
2023/02/19 08:59:30;;;;;;;3.50;0.70;;;;;;;3.61;100.00;98849.31;104756;1261;60167;-50
2023/02/19 09:01:57;;;;;;;2.70;0.60;;;;;;;3.63;100.00;98848.38;104727;1256;73983;-50
2023/02/19 09:04:24;;;;;;;2.90;0.60;;;;;;;3.65;100.00;98835.15;107940;1256;67314;-48
2023/02/19 09:06:51;;;;;;;2.00;0.50;;;;;;;3.67;100.00;98835.77;105406;1261;73077;-51
2023/02/19 09:09:18;;;;;;;4.50;0.70;;;;;;;3.67;100.00;98832.22;104559;1260;59750;-53
2023/02/19 09:11:45;;;;;;;4.90;0.50;;;;;;;3.67;100.00;98828.15;104522;1261;60096;-53
2023/02/19 09:14:17;;;;;;;2.60;0.50;;;;;;;3.70;100.00;98826.46;104786;1261;70405;-49
2023/02/19 09:16:44;;;;;;;4.20;0.60;;;;;;;3.71;100.00;98829.44;104506;1257;68130;-50
2023/02/19 09:19:11;;;;;;;4.30;0.70;;;;;;;3.71;100.00;98826.60;104495;1261;73736;-52
2023/02/19 09:21:37;;;;;;;3.70;0.60;;;;;;;3.76;100.00;98822.88;104791;1257;62345;-50
2023/02/19 09:24:04;;;;;;;3.30;0.50;;;;;;;3.85;100.00;98822.03;104827;1257;61522;-52
2023/02/19 09:26:31;;;;;;;3.40;0.60;;;;;;;3.94;100.00;98820.98;108695;1258;72393;-51
2023/02/19 09:28:57;;;;;;;4.20;1.20;;;;;;;4.05;100.00;98828.04;107291;1257;59711;-49
2023/02/19 09:31:24;;;;;;;2.30;0.60;;;;;;;4.12;100.00;98829.03;104415;1256;74576;-49
2023/02/19 09:33:51;;;;;;;6.00;1.50;;;;;;;4.14;100.00;98830.73;104342;1257;61493;-52
2023/02/19 09:36:17;;;;;;;3.00;0.80;;;;;;;4.14;100.00;98833.20;104898;1257;61546;-49
2023/02/19 09:38:44;;;;;;;3.50;0.50;;;;;;;4.13;100.00;98831.48;104284;1257;72399;-50
2023/02/19 09:41:30;;;;;;;3.30;0.50;;;;;;;4.08;100.00;98835.89;104205;1261;68250;-53
2023/02/19 09:43:57;;;;;;;4.60;0.60;;;;;;;4.05;100.00;98832.46;104656;1257;73468;-47
2023/02/19 09:46:29;;;;;;;2.40;0.60;;;;;;;4.02;100.00;98825.29;105034;1261;59747;-51
2023/02/19 09:49:06;;;;;;;4.80;0.70;;;;;;;4.01;100.00;98818.94;105445;1257;59731;-49
2023/02/19 09:51:35;;;;;;;4.00;0.90;;;;;;;3.99;100.00;98805.02;105059;1261;73607;-52
2023/02/19 09:54:13;;;;;;;5.20;0.70;;;;;;;3.97;100.00;98801.20;104930;1257;68669;-52
2023/02/19 09:56:40;;;;;;;2.80;0.60;;;;;;;3.98;100.00;98802.05;105413;1261;71455;-49
2023/02/19 09:59:14;;;;;;;2.50;0.80;;;;;;;4.02;100.00;98794.23;105426;1256;62976;-52
2023/02/19 10:01:41;;;;;;;5.30;0.60;;;;;;;4.08;100.00;98791.34;104521;1257;60781;-53
2023/02/19 10:04:08;;;;;;;6.80;0.60;;;;;;;4.16;100.00;98780.58;104642;1264;74247;-50
2023/02/19 10:06:36;;;;;;;3.20;0.50;;;;;;;4.23;100.00;98774.81;104674;1258;66169;-49
2023/02/19 10:09:25;;;;;;;4.50;0.60;;;;;;;4.29;100.00;98767.30;106081;1259;72985;-49
2023/02/19 10:11:55;;;;;;;1.80;0.50;;;;;;;4.33;100.00;98768.55;108801;1256;60791;-52
2023/02/19 10:14:33;;;;;;;2.60;0.40;;;;;;;4.37;100.00;98762.16;105436;1263;60169;-49
2023/02/19 10:17:03;;;;;;;1.90;0.50;;;;;;;4.40;100.00;98750.88;106488;1258;73202;-50
2023/02/19 10:19:31;;;;;;;3.90;0.70;;;;;;;4.42;100.00;98744.56;105302;1259;67732;-48
2023/02/19 10:21:59;;;;;;;2.90;0.50;;;;;;;4.45;100.00;98741.60;105006;1257;72806;-50
2023/02/19 10:24:27;;;;;;;3.10;0.70;;;;;;;4.49;100.00;98745.74;104813;1257;59753;-51
2023/02/19 10:26:53;;;;;;;4.20;0.50;;;;;;;4.50;100.00;98748.70;106456;1257;60030;-52
2023/02/19 10:29:20;;;;;;;4.40;0.60;;;;;;;4.51;100.00;98745.09;104796;1256;71180;-47
2023/02/19 10:31:47;;;;;;;1.90;0.40;;;;;;;4.52;100.00;98747.36;108851;1256;68472;-49
2023/02/19 10:34:19;;;;;;;4.20;0.50;;;;;;;4.53;100.00;98743.58;108404;1256;70801;-48
2023/02/19 10:36:46;;;;;;;2.70;0.50;;;;;;;4.53;100.00;98738.26;104982;1256;59932;-52
2023/02/19 10:39:22;;;;;;;2.20;0.50;;;;;;;4.52;100.00;98721.61;104742;1262;60492;-50
2023/02/19 10:41:49;;;;;;;3.70;0.60;;;;;;;4.49;100.00;98724.23;104528;1260;72465;-50
2023/02/19 10:44:21;;;;;;;3.20;0.50;;;;;;;4.46;100.00;98721.50;104601;1261;67597;-51
2023/02/19 10:46:49;;;;;;;2.60;1.00;;;;;;;4.45;100.00;98717.09;108460;1256;74659;-49
2023/02/19 10:49:16;;;;;;;2.60;0.50;;;;;;;4.46;100.00;98711.73;105093;1257;59635;-50
2023/02/19 10:51:43;;;;;;;2.90;0.50;;;;;;;4.46;100.00;98700.70;104900;1261;60227;-51
2023/02/19 10:54:24;;;;;;;3.30;0.60;;;;;;;4.47;100.00;98691.06;104888;1257;73978;-53
2023/02/19 10:56:50;;;;;;;6.00;0.80;;;;;;;4.49;100.00;98681.07;107333;1258;66437;-49
2023/02/19 10:59:17;;;;;;;2.40;0.50;;;;;;;4.51;100.00;98673.87;104980;1254;72708;-49
2023/02/19 11:02:01;;;;;;;4.40;0.50;;;;;;;4.52;100.00;98667.57;105036;1255;59728;-49
2023/02/19 11:04:32;;;;;;;2.80;0.40;;;;;;;4.54;100.00;98658.45;109111;1254;60700;-51
2023/02/19 11:07:18;;;;;;;5.00;0.60;;;;;;;4.55;100.00;98655.93;105079;1258;72253;-50
2023/02/19 11:09:46;;;;;;;1.80;0.60;;;;;;;4.59;100.00;98662.02;104682;1256;66714;-51
2023/02/19 11:12:13;;;;;;;6.90;0.70;;;;;;;4.62;100.00;98660.42;108721;1257;72561;-52
2023/02/19 11:14:42;;;;;;;1.60;0.50;;;;;;;4.67;100.00;98657.56;107621;1257;59906;-53
2023/02/19 11:17:24;;;;;;;2.20;0.70;;;;;;;4.72;100.00;98652.75;105286;1257;62059;-52
2023/02/19 11:19:52;;;;;;;2.40;1.10;;;;;;;4.74;100.00;98654.61;108959;1257;71828;-53
2023/02/19 11:22:38;;;;;;;4.70;0.60;;;;;;;4.73;100.00;98648.61;109022;1256;67619;-52
2023/02/19 11:25:09;;;;;;;1.50;0.60;;;;;;;4.69;100.00;98646.65;105300;1257;71775;-51
2023/02/19 11:27:37;;;;;;;3.30;0.60;;;;;;;4.68;100.00;98646.30;109094;1255;60155;-51
2023/02/19 11:30:40;;;;;;;2.30;0.50;;;;;;;4.69;100.00;98643.94;108851;1255;59146;-50
2023/02/19 11:33:23;;;;;;;3.00;0.50;;;;;;;4.72;100.00;98640.11;107128;1260;74468;-47
2023/02/19 11:35:51;;;;;;;2.20;0.50;;;;;;;4.71;100.00;98641.75;105005;1257;68113;-49
2023/02/19 11:38:18;;;;;;;1.20;0.50;;;;;;;4.69;100.00;98642.55;108954;1254;72729;-50
2023/02/19 11:41:12;;;;;;;3.30;0.40;;;;;;;4.68;100.00;98636.02;109104;1255;58331;-51
2023/02/19 11:43:48;;;;;;;1.60;0.50;;;;;;;4.65;100.00;98639.38;105127;1257;60435;-49
2023/02/19 11:46:34;;;;;;;4.30;0.70;;;;;;;4.61;100.00;98634.36;104973;1254;70998;-47
2023/02/19 11:49:11;;;;;;;2.10;0.40;;;;;;;4.59;100.00;98637.86;108873;1257;67111;-51
2023/02/19 11:52:17;;;;;;;3.10;0.50;;;;;;;4.55;100.00;98642.94;107034;1258;70651;-47
2023/02/19 11:55:28;;;;;;;1.80;0.50;;;;;;;4.55;100.00;98646.33;104698;1256;60717;-50
2023/02/19 11:58:09;;;;;;;5.20;0.50;;;;;;;4.58;100.00;98649.62;104908;1257;59998;-49
2023/02/19 12:00:43;;;;;;;1.80;0.40;;;;;;;4.58;100.00;98656.71;107423;1254;72036;-50
2023/02/19 12:03:27;;;;;;;3.20;0.40;;;;;;;4.57;100.00;98655.14;107399;1254;67521;-49
2023/02/19 12:06:30;;;;;;;1.60;0.50;;;;;;;4.54;100.00;98651.35;105085;1260;72412;-47
2023/02/19 12:09:09;;;;;;;2.20;0.60;;;;;;;4.53;100.00;98651.92;109120;1254;59633;-49
2023/02/19 12:11:48;;;;;;;3.50;0.50;;;;;;;4.55;100.00;98649.73;105225;1254;60633;-51
2023/02/19 12:14:29;;;;;;;2.70;0.50;;;;;;;4.55;100.00;98651.30;109061;1254;71959;-47